Time;durP1;ratioP1;P1;durP2;ratioP2;P2;SDS_P1;SDS_P2;PMS_P1;PMS_P2;Temp;Humidity;BMP_temperature;BMP_pressure;BME280_temperature;BME280_humidity;BME280_pressure;Samples;Min_cycle;Max_cycle;Signal;HPM_P1;HPM_P2
2021/06/17 00:00:35;;;;;;;4.65;3.63;;;25.10;80.60;;;;;;5074652;28;20122;-74
2021/06/17 00:03:01;;;;;;;4.63;3.25;;;25.10;80.80;;;;;;5075716;28;20039;-74
2021/06/17 00:05:30;;;;;;;4.47;3.88;;;25.00;80.70;;;;;;5091823;28;20032;-73
2021/06/17 00:07:57;;;;;;;6.95;3.70;;;25.10;80.60;;;;;;5074924;28;20475;-74
2021/06/17 00:10:32;;;;;;;8.82;3.42;;;25.10;80.80;;;;;;5092557;28;20028;-73
2021/06/17 00:13:02;;;;;;;4.03;3.38;;;25.10;80.80;;;;;;5074996;28;20441;-72
2021/06/17 00:15:29;;;;;;;5.63;3.70;;;25.00;80.30;;;;;;5074104;28;20110;-72
2021/06/17 00:17:55;;;;;;;4.85;3.70;;;25.00;80.30;;;;;;5074407;28;20079;-73
2021/06/17 00:20:22;;;;;;;6.05;3.28;;;25.00;80.20;;;;;;5073598;28;20075;-73
2021/06/17 00:22:48;;;;;;;4.82;3.10;;;25.00;80.50;;;;;;5092689;28;20034;-73
2021/06/17 00:25:15;;;;;;;5.65;3.08;;;25.00;80.50;;;;;;5091789;28;20063;-73
2021/06/17 00:27:41;;;;;;;3.47;3.17;;;24.90;80.70;;;;;;5092567;28;20054;-72
2021/06/17 00:30:08;;;;;;;3.83;3.47;;;24.90;80.70;;;;;;5074094;28;20016;-73
2021/06/17 00:32:34;;;;;;;4.60;3.80;;;24.90;80.80;;;;;;5073026;28;20029;-74
2021/06/17 00:35:00;;;;;;;6.07;3.40;;;24.90;80.10;;;;;;5074341;28;20437;-73
2021/06/17 00:37:26;;;;;;;4.90;3.50;;;24.90;80.10;;;;;;5072991;28;20107;-73
2021/06/17 00:39:52;;;;;;;4.90;3.72;;;24.80;80.30;;;;;;5074216;28;20215;-74
2021/06/17 00:42:18;;;;;;;5.38;3.83;;;24.80;80.40;;;;;;5072985;28;20508;-73
2021/06/17 00:44:43;;;;;;;6.57;3.63;;;24.70;80.80;;;;;;5073814;28;20039;-73
2021/06/17 00:47:09;;;;;;;5.30;3.83;;;24.80;80.70;;;;;;5073355;28;20036;-72
2021/06/17 00:49:35;;;;;;;4.88;3.35;;;24.70;80.90;;;;;;5073507;28;20035;-73
2021/06/17 00:52:03;;;;;;;5.95;3.13;;;24.70;81.00;;;;;;5091835;28;20024;-73
2021/06/17 00:54:32;;;;;;;5.55;3.28;;;24.70;81.00;;;;;;5091695;28;20066;-72
2021/06/17 00:57:07;;;;;;;5.57;3.38;;;24.70;81.20;;;;;;5092283;28;20055;-73
2021/06/17 00:59:33;;;;;;;3.72;3.35;;;24.70;81.10;;;;;;5073103;28;20185;-73
2021/06/17 01:01:59;;;;;;;4.60;3.70;;;24.60;81.50;;;;;;5073648;28;20180;-72
2021/06/17 01:04:26;;;;;;;4.60;3.58;;;24.60;81.60;;;;;;5091846;28;20454;-73
2021/06/17 01:06:53;;;;;;;5.80;3.20;;;24.60;81.80;;;;;;5073733;28;20032;-73
2021/06/17 01:09:41;;;;;;;4.70;3.50;;;24.50;82.80;;;;;;5072615;28;20028;-73
2021/06/17 01:12:17;;;;;;;3.58;3.22;;;24.50;82.50;;;;;;5074326;28;20028;-74
2021/06/17 01:14:58;;;;;;;5.05;3.80;;;24.50;82.60;;;;;;5073840;28;20432;-73
2021/06/17 01:17:26;;;;;;;6.13;3.50;;;24.50;82.70;;;;;;5073192;28;20126;-73
2021/06/17 01:19:59;;;;;;;4.07;3.58;;;24.40;82.90;;;;;;5091609;28;20146;-73
2021/06/17 01:23:02;;;;;;;5.90;3.58;;;24.40;83.20;;;;;;5072497;28;20060;-73
2021/06/17 01:25:43;;;;;;;8.45;3.83;;;24.40;83.00;;;;;;5072737;28;20109;-73
2021/06/17 01:28:16;;;;;;;9.63;3.50;;;24.40;83.10;;;;;;5073497;28;20024;-73
2021/06/17 01:31:04;;;;;;;7.22;3.78;;;24.30;83.00;;;;;;5073044;28;20032;-73
2021/06/17 01:33:36;;;;;;;4.30;3.30;;;24.30;83.20;;;;;;5072652;28;20032;-74
2021/06/17 01:36:17;;;;;;;3.45;3.15;;;24.30;83.50;;;;;;5073200;28;20321;-74
2021/06/17 01:38:46;;;;;;;7.43;3.42;;;24.30;83.40;;;;;;5073195;28;20032;-73
2021/06/17 01:41:12;;;;;;;9.23;3.88;;;24.20;83.40;;;;;;5091190;28;20036;-72
2021/06/17 01:43:42;;;;;;;4.03;3.72;;;24.20;83.50;;;;;;5072450;28;20040;-74
2021/06/17 01:46:11;;;;;;;3.67;3.35;;;24.20;83.60;;;;;;5073062;28;20031;-74
2021/06/17 01:48:37;;;;;;;3.70;3.40;;;24.20;83.70;;;;;;5071646;28;20036;-74
2021/06/17 01:51:03;;;;;;;5.65;3.92;;;24.20;83.80;;;;;;5072817;28;20032;-74
2021/06/17 01:53:30;;;;;;;4.15;3.85;;;24.20;83.60;;;;;;5072209;28;20028;-74
2021/06/17 01:55:57;;;;;;;7.03;3.17;;;24.10;83.80;;;;;;5072874;28;20024;-74
2021/06/17 01:58:24;;;;;;;4.18;3.78;;;24.20;83.90;;;;;;5071946;28;20073;-75
2021/06/17 02:00:51;;;;;;;4.30;3.58;;;24.10;83.80;;;;;;5090768;28;20118;-74
2021/06/17 02:03:18;;;;;;;6.57;3.63;;;24.10;83.80;;;;;;5089556;28;20063;-75
2021/06/17 02:05:44;;;;;;;5.55;3.85;;;24.10;84.00;;;;;;5072573;28;20024;-73
2021/06/17 02:08:11;;;;;;;5.72;4.00;;;24.00;84.20;;;;;;5072567;28;20396;-73
2021/06/17 02:10:40;;;;;;;5.20;3.28;;;24.00;84.20;;;;;;5071632;28;20145;-73
2021/06/17 02:13:10;;;;;;;4.32;3.42;;;24.00;84.10;;;;;;5090687;28;20119;-73
2021/06/17 02:15:36;;;;;;;7.40;3.95;;;24.00;84.10;;;;;;5071746;28;20046;-74
2021/06/17 02:18:03;;;;;;;5.28;3.83;;;24.00;84.30;;;;;;5090601;28;20089;-73
2021/06/17 02:20:28;;;;;;;5.18;3.97;;;24.00;84.30;;;;;;5071346;28;20092;-73
2021/06/17 02:23:04;;;;;;;6.45;4.45;;;24.00;84.30;;;;;;5071757;28;20465;-74
2021/06/17 02:25:32;;;;;;;5.75;3.88;;;23.90;84.30;;;;;;5089741;28;20434;-74
2021/06/17 02:28:05;;;;;;;3.70;3.40;;;23.90;84.80;;;;;;5090670;28;20020;-74
2021/06/17 02:30:35;;;;;;;4.45;4.03;;;23.90;84.60;;;;;;5071358;28;20038;-74
2021/06/17 02:33:04;;;;;;;3.70;3.40;;;23.90;85.00;;;;;;5072096;28;20174;-74
2021/06/17 02:35:31;;;;;;;4.43;4.03;;;23.90;84.90;;;;;;5070222;28;20028;-74
2021/06/17 02:38:00;;;;;;;4.90;3.88;;;23.80;85.40;;;;;;5071879;28;20030;-74
2021/06/17 02:40:29;;;;;;;6.43;4.30;;;23.80;85.20;;;;;;5070705;28;20028;-74
2021/06/17 02:42:56;;;;;;;6.90;4.60;;;23.80;85.40;;;;;;5090681;28;20478;-74
2021/06/17 02:45:28;;;;;;;5.18;4.63;;;23.80;85.20;;;;;;5071170;28;20445;-74
2021/06/17 02:47:55;;;;;;;5.18;4.32;;;23.70;85.40;;;;;;5090470;28;20117;-74
2021/06/17 02:50:22;;;;;;;10.07;5.07;;;23.60;85.40;;;;;;5089106;28;20032;-74
2021/06/17 02:52:48;;;;;;;4.47;3.75;;;23.60;85.90;;;;;;5072186;28;20039;-74
2021/06/17 02:55:13;;;;;;;4.25;3.70;;;23.60;86.10;;;;;;5090326;28;20024;-75
2021/06/17 02:58:02;;;;;;;5.07;3.80;;;23.60;86.20;;;;;;5089007;28;20602;-75
2021/06/17 03:00:30;;;;;;;7.75;3.55;;;23.60;86.20;;;;;;5070830;28;20028;-74
2021/06/17 03:03:02;;;;;;;4.40;4.00;;;23.60;86.30;;;;;;5072092;28;20050;-74
2021/06/17 03:05:55;;;;;;;4.13;3.72;;;23.60;86.60;;;;;;5071293;28;20073;-74
2021/06/17 03:08:32;;;;;;;4.25;3.92;;;23.60;86.60;;;;;;5071285;28;20044;-73
2021/06/17 03:11:02;;;;;;;5.40;4.75;;;23.50;86.40;;;;;;5089584;28;20036;-73
2021/06/17 03:13:32;;;;;;;6.35;4.10;;;23.50;86.20;;;;;;5071212;28;20078;-74
2021/06/17 03:15:58;;;;;;;7.25;3.63;;;23.50;86.30;;;;;;5089814;28;20032;-74
2021/06/17 03:18:25;;;;;;;7.05;4.45;;;23.50;86.40;;;;;;5089059;28;20048;-73
2021/06/17 03:20:56;;;;;;;4.93;4.05;;;23.60;86.60;;;;;;5071725;28;20066;-74
2021/06/17 03:23:23;;;;;;;8.65;5.32;;;23.60;86.70;;;;;;5089663;28;20074;-73
2021/06/17 03:25:58;;;;;;;6.82;4.70;;;23.50;86.50;;;;;;5071932;28;20039;-74
2021/06/17 03:28:26;;;;;;;7.38;4.25;;;23.50;86.90;;;;;;5071324;28;20476;-74
2021/06/17 03:30:52;;;;;;;6.47;4.55;;;23.50;86.80;;;;;;5071506;28;20028;-74
2021/06/17 03:33:22;;;;;;;5.55;4.40;;;23.50;86.80;;;;;;5089660;28;20066;-73
2021/06/17 03:35:49;;;;;;;4.38;4.07;;;23.50;86.90;;;;;;5071196;28;20446;-73
2021/06/17 03:38:15;;;;;;;8.23;3.70;;;23.50;86.90;;;;;;5071510;28;20028;-73
2021/06/17 03:40:43;;;;;;;10.02;4.75;;;23.50;87.00;;;;;;5070667;28;20110;-73
2021/06/17 03:43:10;;;;;;;4.63;4.22;;;23.50;86.70;;;;;;5070848;28;20393;-73
2021/06/17 03:45:39;;;;;;;6.55;3.83;;;23.50;86.30;;;;;;5088513;28;20423;-73
2021/06/17 03:48:07;;;;;;;4.75;3.97;;;23.50;86.10;;;;;;5093040;28;20150;-74
2021/06/17 03:50:34;;;;;;;9.02;4.75;;;23.50;85.70;;;;;;5074075;28;20031;-73
2021/06/17 03:53:01;;;;;;;7.20;4.88;;;23.40;86.30;;;;;;5074059;28;20051;-74
2021/06/17 03:55:28;;;;;;;4.80;4.22;;;23.40;86.50;;;;;;5074374;28;20100;-73
2021/06/17 03:57:56;;;;;;;5.57;4.97;;;23.40;86.30;;;;;;5092493;28;20044;-73
2021/06/17 04:00:25;;;;;;;5.95;4.10;;;23.40;85.90;;;;;;5092067;28;20016;-73
2021/06/17 04:02:55;;;;;;;6.57;4.25;;;23.40;86.40;;;;;;5074634;28;20414;-72
2021/06/17 04:05:21;;;;;;;5.65;4.43;;;23.40;86.10;;;;;;5074081;28;20028;-74
2021/06/17 04:07:50;;;;;;;7.28;3.92;;;23.40;86.00;;;;;;5074749;28;20039;-76
2021/06/17 04:10:18;;;;;;;7.75;4.20;;;23.40;85.50;;;;;;5075501;28;20111;-73
2021/06/17 04:12:45;;;;;;;6.38;4.18;;;23.40;85.80;;;;;;5073683;28;20144;-74
2021/06/17 04:15:11;;;;;;;5.68;4.32;;;23.40;86.10;;;;;;5093001;28;20035;-74
2021/06/17 04:17:47;;;;;;;4.97;3.90;;;23.50;86.10;;;;;;5091820;28;20028;-72
2021/06/17 04:20:39;;;;;;;5.50;3.85;;;23.50;85.90;;;;;;5074548;28;20115;-73
2021/06/17 04:23:06;;;;;;;5.70;4.00;;;23.60;85.90;;;;;;5093369;28;20161;-72
2021/06/17 04:25:33;;;;;;;4.47;4.07;;;23.60;86.00;;;;;;5073896;28;20028;-73
2021/06/17 04:28:01;;;;;;;7.22;4.30;;;23.60;85.10;;;;;;5092485;28;20028;-73
2021/06/17 04:30:29;;;;;;;12.88;5.30;;;23.60;85.50;;;;;;5073683;28;20028;-74
2021/06/17 04:32:57;;;;;;;7.35;4.43;;;23.70;85.20;;;;;;5074198;28;20024;-73
2021/06/17 04:35:25;;;;;;;6.18;4.35;;;23.70;84.90;;;;;;5091877;28;20377;-74
2021/06/17 04:37:51;;;;;;;6.05;4.45;;;23.70;84.90;;;;;;5074061;28;20028;-73
2021/06/17 04:40:20;;;;;;;4.63;3.75;;;23.60;84.20;;;;;;5091884;28;20016;-73
2021/06/17 04:42:47;;;;;;;3.45;3.15;;;23.70;84.50;;;;;;5073245;28;20279;-73
2021/06/17 04:45:14;;;;;;;7.85;3.75;;;23.70;84.40;;;;;;5074151;28;20161;-73
2021/06/17 04:47:42;;;;;;;5.70;4.07;;;23.60;84.40;;;;;;5090105;28;20040;-73
2021/06/17 04:50:09;;;;;;;5.88;3.70;;;23.60;84.60;;;;;;5092024;28;20353;-72
2021/06/17 04:52:55;;;;;;;20.58;5.43;;;23.60;85.10;;;;;;5091392;28;20024;-72
2021/06/17 04:55:21;;;;;;;7.10;3.58;;;23.70;85.10;;;;;;5056221;28;20032;-73
2021/06/17 04:57:47;;;;;;;9.43;4.63;;;23.80;85.20;;;;;;5090931;28;20489;-73
2021/06/17 05:00:13;;;;;;;8.55;4.07;;;23.90;84.50;;;;;;5073849;28;20464;-73
2021/06/17 05:02:39;;;;;;;12.57;5.90;;;23.80;84.10;;;;;;5090042;28;20035;-73
2021/06/17 05:05:08;;;;;;;9.88;5.18;;;24.00;83.90;;;;;;5091692;28;20024;-74
2021/06/17 05:12:47;;;;;;;6.90;4.43;;;24.00;84.00;;;;;;5091385;28;20055;-73
2021/06/17 05:15:13;;;;;;;5.47;3.83;;;24.00;83.70;;;;;;5092456;28;20029;-74
2021/06/17 05:17:39;;;;;;;5.65;3.92;;;24.20;83.60;;;;;;5091139;28;20079;-73
2021/06/17 05:20:06;;;;;;;6.93;4.07;;;24.20;83.30;;;;;;5074337;28;20043;-75
2021/06/17 05:22:34;;;;;;;12.05;4.40;;;24.20;83.00;;;;;;5091906;28;20032;-75
2021/06/17 05:25:00;;;;;;;9.27;4.30;;;24.20;83.30;;;;;;5092163;28;20101;-77
2021/06/17 05:27:25;;;;;;;9.07;3.90;;;24.20;82.80;;;;;;5091130;28;20024;-72
2021/06/17 05:29:51;;;;;;;6.10;3.88;;;24.10;82.60;;;;;;5072683;28;20441;-73
2021/06/17 05:32:18;;;;;;;8.27;4.70;;;24.10;82.70;;;;;;5091653;28;20105;-72
2021/06/17 05:34:45;;;;;;;7.68;4.45;;;24.10;82.80;;;;;;5106002;28;20349;-73
2021/06/17 05:37:10;;;;;;;15.75;4.72;;;24.10;83.00;;;;;;5072215;28;20028;-74
2021/06/17 05:39:37;;;;;;;7.38;4.28;;;24.10;83.10;;;;;;5071544;28;20107;-72
2021/06/17 05:42:04;;;;;;;12.23;4.80;;;24.00;83.00;;;;;;5071608;28;20122;-69
2021/06/17 05:44:29;;;;;;;11.52;3.78;;;24.10;83.20;;;;;;5104487;28;20037;-76
2021/06/17 05:46:55;;;;;;;7.68;3.55;;;24.20;86.40;;;;;;5089404;28;20063;-73
2021/06/17 05:49:24;;;;;;;5.07;3.83;;;24.50;84.80;;;;;;5070767;28;20107;-71
2021/06/17 05:51:50;;;;;;;9.23;4.30;;;24.60;84.50;;;;;;5070521;28;20412;-70
2021/06/17 05:54:16;;;;;;;7.40;4.47;;;24.80;82.50;;;;;;5089734;28;20036;-74
2021/06/17 05:56:42;;;;;;;7.55;4.07;;;24.70;81.20;;;;;;5070409;28;20028;-71
2021/06/17 05:59:08;;;;;;;8.82;3.80;;;24.80;83.30;;;;;;5055084;28;20034;-71
2021/06/17 06:01:33;;;;;;;7.50;4.63;;;25.00;81.80;;;;;;5103685;28;20350;-72
2021/06/17 06:03:59;;;;;;;8.30;4.82;;;25.00;82.00;;;;;;5071063;28;20040;-69
2021/06/17 06:06:25;;;;;;;8.30;4.75;;;25.10;82.30;;;;;;5070179;28;20035;-68
2021/06/17 06:08:51;;;;;;;9.90;3.85;;;25.10;80.50;;;;;;5103754;28;20560;-71
2021/06/17 06:11:16;;;;;;;5.85;4.40;;;25.10;81.40;;;;;;5069594;28;20491;-74
2021/06/17 06:13:42;;;;;;;5.40;4.40;;;25.10;80.90;;;;;;5088308;28;20050;-72
2021/06/17 06:16:09;;;;;;;12.38;4.47;;;25.10;81.10;;;;;;5070446;28;20047;-73
2021/06/17 06:18:35;;;;;;;6.05;4.28;;;25.00;81.10;;;;;;5087702;28;20058;-72
2021/06/17 06:21:01;;;;;;;9.27;4.65;;;25.10;81.20;;;;;;5070602;28;20111;-74
2021/06/17 06:23:28;;;;;;;8.65;4.18;;;25.10;81.00;;;;;;5070624;28;20035;-79
2021/06/17 06:25:54;;;;;;;10.70;4.63;;;25.20;81.00;;;;;;5069989;28;20469;-75
2021/06/17 06:28:21;;;;;;;5.80;4.40;;;25.20;81.20;;;;;;5070257;28;20036;-74
2021/06/17 06:30:49;;;;;;;14.57;4.80;;;25.20;81.60;;;;;;5088234;28;20103;-73
2021/06/17 06:33:15;;;;;;;6.50;4.18;;;25.30;81.50;;;;;;5089459;28;20056;-75
2021/06/17 06:35:41;;;;;;;6.93;5.07;;;25.30;81.60;;;;;;5069375;28;20028;-72
2021/06/17 06:38:07;;;;;;;6.13;4.32;;;25.40;82.00;;;;;;5088564;28;20028;-73
2021/06/17 06:40:33;;;;;;;14.77;4.97;;;25.40;81.10;;;;;;5068842;28;20036;-72
2021/06/17 06:42:59;;;;;;;6.15;4.68;;;25.40;81.10;;;;;;5089500;28;20446;-74
2021/06/17 06:45:25;;;;;;;6.65;4.60;;;25.40;80.60;;;;;;5071017;28;20024;-73
2021/06/17 06:47:51;;;;;;;13.02;4.38;;;25.40;80.20;;;;;;5069787;28;20072;-75
2021/06/17 06:50:18;;;;;;;12.27;4.10;;;25.40;80.40;;;;;;5069703;28;20124;-72
2021/06/17 06:52:45;;;;;;;6.20;4.13;;;25.40;80.30;;;;;;5087870;28;20028;-72
2021/06/17 06:55:13;;;;;;;9.95;4.47;;;25.40;80.50;;;;;;5070661;28;20024;-70
2021/06/17 06:57:38;;;;;;;5.80;3.60;;;25.50;81.10;;;;;;5088311;28;20032;-72
2021/06/17 07:00:07;;;;;;;13.10;3.88;;;25.60;79.90;;;;;;5069600;28;20028;-71
2021/06/17 07:02:34;;;;;;;4.45;4.05;;;25.70;79.80;;;;;;5068321;28;20037;-70
2021/06/17 07:05:00;;;;;;;5.75;4.45;;;25.90;80.10;;;;;;5070399;28;20035;-70
2021/06/17 07:07:26;;;;;;;5.57;3.63;;;25.90;79.20;;;;;;5069949;28;20371;-74
2021/06/17 07:09:52;;;;;;;4.00;3.60;;;26.00;79.50;;;;;;5087630;28;20105;-71
2021/06/17 07:12:18;;;;;;;7.05;3.85;;;26.10;79.30;;;;;;5103975;28;20032;-71
2021/06/17 07:14:44;;;;;;;5.90;3.45;;;26.30;78.20;;;;;;5069522;28;20139;-72
2021/06/17 07:17:10;;;;;;;4.22;3.83;;;26.40;77.80;;;;;;5069789;28;20100;-71
2021/06/17 07:19:35;;;;;;;5.68;3.72;;;26.40;77.80;;;;;;5065632;28;20427;-59
2021/06/17 07:22:01;;;;;;;7.05;3.55;;;26.40;76.40;;;;;;5070720;28;20044;-57
2021/06/17 07:24:27;;;;;;;9.10;3.75;;;26.50;77.40;;;;;;5070416;28;20358;-62
2021/06/17 07:26:54;;;;;;;7.70;3.38;;;26.60;76.70;;;;;;5071317;28;20032;-57
2021/06/17 07:29:20;;;;;;;6.07;3.90;;;26.60;75.90;;;;;;5070783;28;20385;-58
2021/06/17 07:31:46;;;;;;;10.73;3.95;;;26.70;77.40;;;;;;5071377;28;20084;-58
2021/06/17 07:34:12;;;;;;;7.35;3.47;;;26.80;77.40;;;;;;5070937;28;20502;-58
2021/06/17 07:36:40;;;;;;;6.20;3.72;;;26.80;76.20;;;;;;5071722;28;20029;-57
2021/06/17 07:39:10;;;;;;;9.85;3.40;;;26.90;74.70;;;;;;5070654;28;20028;-56
2021/06/17 07:41:37;;;;;;;6.75;3.35;;;26.80;75.80;;;;;;5070297;28;20048;-56
2021/06/17 07:44:04;;;;;;;16.88;4.18;;;27.00;75.20;;;;;;5071925;28;20036;-53
2021/06/17 07:46:30;;;;;;;7.97;3.50;;;27.00;74.30;;;;;;5070393;28;20029;-52
2021/06/17 07:48:58;;;;;;;11.15;4.43;;;27.10;73.70;;;;;;5069604;28;20037;-52
2021/06/17 07:51:25;;;;;;;7.78;3.85;;;27.30;75.00;;;;;;5072240;28;20032;-52
2021/06/17 07:53:51;;;;;;;9.00;3.05;;;27.50;73.80;;;;;;5068132;28;20040;-53
2021/06/17 07:56:16;;;;;;;11.45;4.05;;;27.70;73.10;;;;;;5070434;28;20027;-52
2021/06/17 07:58:43;;;;;;;9.15;3.60;;;27.70;72.80;;;;;;5067970;28;20025;-53
2021/06/17 08:01:09;;;;;;;7.03;3.22;;;27.80;73.80;;;;;;5070249;28;20119;-54
2021/06/17 08:03:35;;;;;;;8.95;3.65;;;27.90;72.60;;;;;;5065033;28;20031;-53
2021/06/17 08:06:01;;;;;;;9.38;3.72;;;27.90;72.50;;;;;;5070790;28;20048;-54
2021/06/17 08:08:27;;;;;;;8.52;3.80;;;28.00;71.30;;;;;;5069825;28;20028;-63
2021/06/17 08:10:52;;;;;;;10.23;4.20;;;28.30;70.70;;;;;;5069860;28;20060;-51
2021/06/17 08:13:18;;;;;;;11.02;4.15;;;28.50;71.00;;;;;;5069764;28;20025;-52
2021/06/17 08:15:44;;;;;;;9.52;3.75;;;28.30;71.70;;;;;;5070650;28;20383;-52
2021/06/17 08:18:10;;;;;;;11.82;3.95;;;28.40;71.30;;;;;;5069397;28;20116;-56
2021/06/17 08:20:36;;;;;;;8.82;3.13;;;28.40;71.30;;;;;;5069817;28;20357;-53
2021/06/17 08:23:02;;;;;;;5.82;3.63;;;28.70;71.20;;;;;;5070368;28;20385;-51
2021/06/17 08:25:28;;;;;;;10.90;4.38;;;28.80;71.20;;;;;;5080222;28;20024;-62
2021/06/17 08:27:56;;;;;;;21.73;5.95;;;29.20;70.20;;;;;;5074487;28;20094;-52
2021/06/17 08:30:22;;;;;;;38.63;9.27;;;28.90;72.20;;;;;;5070781;28;20029;-52
2021/06/17 08:32:49;;;;;;;18.40;4.90;;;29.00;84.70;;;;;;5067489;28;20158;-51
2021/06/17 08:35:15;;;;;;;6.80;3.75;;;29.10;72.60;;;;;;5070915;28;20516;-51
2021/06/17 08:37:41;;;;;;;7.20;3.58;;;29.40;69.40;;;;;;5068593;28;20028;-51
2021/06/17 08:40:08;;;;;;;15.32;4.32;;;29.80;70.30;;;;;;5069172;28;20071;-51
2021/06/17 08:42:34;;;;;;;8.70;3.65;;;30.30;68.10;;;;;;5068579;28;20032;-51
2021/06/17 08:45:05;;;;;;;12.82;3.08;;;30.60;67.80;;;;;;5068680;28;20044;-51
2021/06/17 08:47:32;;;;;;;7.28;3.10;;;30.70;67.40;;;;;;5067969;28;20488;-62
2021/06/17 08:49:59;;;;;;;6.97;2.92;;;30.80;66.80;;;;;;5068500;28;20492;-51
2021/06/17 08:52:31;;;;;;;5.43;3.22;;;30.60;65.80;;;;;;5069183;28;20080;-50
2021/06/17 08:55:10;;;;;;;4.88;3.13;;;30.40;65.90;;;;;;5069182;28;20020;-50
2021/06/17 08:57:35;;;;;;;5.90;3.10;;;30.50;66.30;;;;;;5067981;28;20074;-50
2021/06/17 09:00:02;;;;;;;7.35;3.90;;;30.60;67.30;;;;;;5069058;28;20071;-50
2021/06/17 09:02:33;;;;;;;14.88;3.72;;;30.80;67.30;;;;;;5069712;28;20037;-63
2021/06/17 09:05:15;;;;;;;4.82;3.25;;;31.10;66.30;;;;;;5069184;28;20065;-52
2021/06/17 09:07:43;;;;;;;12.70;4.68;;;31.10;66.00;;;;;;5048202;28;20041;-52
2021/06/17 09:10:09;;;;;;;8.02;4.20;;;30.90;66.80;;;;;;5065603;28;20108;-50
2021/06/17 09:12:50;;;;;;;6.43;3.85;;;30.80;65.50;;;;;;5050135;28;20063;-51
2021/06/17 09:15:31;;;;;;;7.80;3.72;;;30.60;65.80;;;;;;5065803;28;20456;-55
2021/06/17 09:18:26;;;;;;;4.65;3.15;;;30.70;66.40;;;;;;5054129;28;20077;-51
2021/06/17 09:21:07;;;;;;;9.48;3.50;;;30.90;66.10;;;;;;5085036;28;20418;-51
2021/06/17 09:23:41;;;;;;;4.85;3.28;;;31.00;65.60;;;;;;5068814;28;20047;-51
2021/06/17 09:26:09;;;;;;;7.20;3.92;;;31.00;65.20;;;;;;5070039;28;20059;-71
2021/06/17 09:29:05;;;;;;;6.68;3.40;;;31.10;65.20;;;;;;5067204;28;20499;-67
2021/06/17 09:31:33;;;;;;;5.47;3.22;;;30.80;66.00;;;;;;5030324;28;20051;-67
2021/06/17 09:34:00;;;;;;;5.50;2.95;;;30.70;65.20;;;;;;5067871;28;20152;-69
2021/06/17 09:36:31;;;;;;;6.05;3.10;;;30.60;65.10;;;;;;5069615;28;20032;-67
2021/06/17 09:38:59;;;;;;;8.48;3.35;;;30.90;64.30;;;;;;5090020;28;20086;-68
2021/06/17 09:41:54;;;;;;;5.22;2.97;;;31.10;64.30;;;;;;5071507;28;20024;-69
2021/06/17 09:44:38;;;;;;;6.53;3.17;;;31.20;63.20;;;;;;5071492;28;20390;-69
2021/06/17 09:47:25;;;;;;;11.25;5.65;;;31.40;63.10;;;;;;5071284;28;20034;-68
2021/06/17 09:49:52;;;;;;;5.55;3.50;;;31.30;63.50;;;;;;5071267;28;20385;-68
2021/06/17 09:52:18;;;;;;;4.72;3.13;;;31.60;63.80;;;;;;5071790;28;20094;-68
2021/06/17 09:54:45;;;;;;;3.88;2.78;;;31.80;64.40;;;;;;5071338;28;20090;-68
2021/06/17 09:57:21;;;;;;;10.55;2.90;;;32.00;62.50;;;;;;5071335;28;20020;-68
2021/06/17 09:59:54;;;;;;;3.75;2.53;;;32.00;61.70;;;;;;5088999;28;20020;-69
2021/06/17 10:02:31;;;;;;;5.65;3.38;;;32.00;62.80;;;;;;5089375;28;20039;-67
2021/06/17 10:05:26;;;;;;;3.70;2.70;;;32.00;62.40;;;;;;5089460;28;20039;-71
2021/06/17 10:07:51;;;;;;;3.88;2.92;;;31.90;62.50;;;;;;5088678;28;20028;-71
2021/06/17 10:10:25;;;;;;;5.40;2.60;;;32.10;62.60;;;;;;5089230;28;20123;-68
2021/06/17 10:12:50;;;;;;;5.20;3.08;;;32.20;61.50;;;;;;5087749;28;20034;-69
2021/06/17 10:15:17;;;;;;;2.92;2.65;;;32.40;62.90;;;;;;5088707;28;20020;-68
2021/06/17 10:17:43;;;;;;;8.52;2.70;;;32.40;61.90;;;;;;5085967;28;20122;-70
2021/06/17 10:20:11;;;;;;;3.75;2.30;;;32.30;61.80;;;;;;5086678;28;20311;-69
2021/06/17 10:22:38;;;;;;;5.32;2.53;;;32.30;61.60;;;;;;5086085;28;20107;-68
2021/06/17 10:25:23;;;;;;;3.63;2.38;;;32.30;61.40;;;;;;5070141;28;20032;-70
2021/06/17 10:27:50;;;;;;;7.53;2.72;;;32.50;61.70;;;;;;5069659;28;20055;-70
2021/06/17 10:30:16;;;;;;;4.32;2.53;;;32.60;61.90;;;;;;5070842;28;20123;-68
2021/06/17 10:32:47;;;;;;;3.22;2.90;;;32.60;61.50;;;;;;5069246;28;20063;-68
2021/06/17 10:35:29;;;;;;;2.92;2.42;;;32.40;61.90;;;;;;5089272;28;20027;-69
2021/06/17 10:37:59;;;;;;;6.28;2.30;;;32.30;62.20;;;;;;5070317;28;20107;-70
2021/06/17 10:40:28;;;;;;;5.32;3.03;;;32.60;62.30;;;;;;5089108;28;20028;-70
2021/06/17 10:42:56;;;;;;;4.80;2.58;;;33.00;62.10;;;;;;5088234;28;20032;-68
2021/06/17 10:45:33;;;;;;;5.03;2.53;;;33.10;63.00;;;;;;5069666;28;20097;-68
2021/06/17 10:48:01;;;;;;;6.05;2.58;;;33.50;63.30;;;;;;5069979;28;20047;-72
2021/06/17 10:50:34;;;;;;;8.25;3.10;;;33.50;63.60;;;;;;5069963;28;20354;-71
2021/06/17 10:53:32;;;;;;;3.95;2.78;;;33.50;63.10;;;;;;5070368;28;20042;-71
2021/06/17 10:56:01;;;;;;;4.40;2.97;;;33.50;62.90;;;;;;5069938;28;20066;-70
2021/06/17 10:58:45;;;;;;;9.45;3.53;;;33.20;62.60;;;;;;5070517;28;20046;-71
2021/06/17 11:01:31;;;;;;;3.90;2.75;;;33.20;63.50;;;;;;5088558;28;20073;-71
2021/06/17 11:03:59;;;;;;;6.32;2.95;;;33.30;63.10;;;;;;5070146;28;20092;-75
2021/06/17 11:06:55;;;;;;;6.28;2.60;;;33.10;63.40;;;;;;5087706;28;20107;-70
2021/06/17 11:09:32;;;;;;;5.70;2.97;;;33.20;62.90;;;;;;5103511;28;20043;-72
2021/06/17 11:11:58;;;;;;;8.15;2.80;;;33.60;63.50;;;;;;5088016;28;20100;-72
2021/06/17 11:14:24;;;;;;;3.63;2.60;;;33.80;64.30;;;;;;5069535;28;20028;-73
2021/06/17 11:16:54;;;;;;;6.13;2.95;;;34.10;63.50;;;;;;5068863;28;20039;-73
2021/06/17 11:19:20;;;;;;;;;;;34.30;63.30;;;;;;5069879;28;20186;-72
2021/06/17 11:21:47;;;;;;;4.70;2.95;;;34.40;62.10;;;;;;5087569;28;20396;-72
2021/06/17 11:24:19;;;;;;;4.28;2.63;;;34.50;63.40;;;;;;5087761;28;20338;-71
2021/06/17 11:26:48;;;;;;;3.13;2.78;;;34.40;60.30;;;;;;5087788;28;20154;-71
2021/06/17 11:29:18;;;;;;;6.38;3.00;;;33.70;60.50;;;;;;5070070;28;20032;-72
2021/06/17 11:31:52;;;;;;;4.88;2.60;;;33.60;61.10;;;;;;5088123;28;20031;-70
2021/06/17 11:34:45;;;;;;;8.30;2.53;;;33.60;60.40;;;;;;5087984;28;20035;-70
2021/06/17 11:37:15;;;;;;;5.03;3.08;;;33.50;60.60;;;;;;5065889;28;20077;-70
2021/06/17 11:39:41;;;;;;;4.93;2.97;;;33.50;61.10;;;;;;5103024;28;20032;-69
2021/06/17 11:42:20;;;;;;;5.35;2.20;;;33.70;61.00;;;;;;5070003;28;20404;-71
2021/06/17 11:45:08;;;;;;;5.00;3.00;;;33.90;61.00;;;;;;5069835;28;20060;-72
2021/06/17 11:47:44;;;;;;;3.92;2.83;;;34.30;60.30;;;;;;5087270;28;20032;-72
2021/06/17 11:50:10;;;;;;;5.43;3.25;;;34.30;59.40;;;;;;5069424;28;20441;-72
2021/06/17 11:52:38;;;;;;;4.97;2.83;;;34.10;59.60;;;;;;5087267;28;20050;-69
2021/06/17 11:55:05;;;;;;;5.88;3.00;;;34.10;59.30;;;;;;5087982;28;20135;-70
2021/06/17 11:57:32;;;;;;;6.70;2.40;;;34.00;59.60;;;;;;5068776;28;20096;-70
2021/06/17 11:59:57;;;;;;;3.58;2.85;;;34.30;59.50;;;;;;5069670;28;20032;-77
2021/06/17 12:02:26;;;;;;;12.45;3.33;;;34.20;59.60;;;;;;5103272;28;20043;-70
2021/06/17 12:05:07;;;;;;;4.40;2.90;;;34.10;59.50;;;;;;5069121;28;20035;-70
2021/06/17 12:07:36;;;;;;;3.88;2.92;;;34.10;60.00;;;;;;5089100;28;20020;-71
2021/06/17 12:10:05;;;;;;;3.40;2.97;;;34.40;60.20;;;;;;5091611;28;20024;-70
2021/06/17 12:12:31;;;;;;;5.72;2.65;;;34.30;59.20;;;;;;5115954;27;20092;-71
2021/06/17 12:14:58;;;;;;;6.95;3.08;;;34.50;58.80;;;;;;5092831;28;20027;-69
2021/06/17 12:17:27;;;;;;;6.18;3.03;;;34.50;58.60;;;;;;5092502;28;20042;-72
2021/06/17 12:19:55;;;;;;;5.45;2.72;;;34.80;58.90;;;;;;5110477;28;20070;-72
2021/06/17 12:22:21;;;;;;;3.42;2.63;;;34.80;58.20;;;;;;5110643;28;20084;-71
2021/06/17 12:24:47;;;;;;;3.33;2.80;;;34.50;58.60;;;;;;5110395;28;20031;-70
2021/06/17 12:27:12;;;;;;;3.95;2.80;;;34.50;58.50;;;;;;5111523;28;20028;-71
2021/06/17 12:29:38;;;;;;;7.70;3.47;;;34.30;58.00;;;;;;5092121;28;20340;-70
2021/06/17 12:32:04;;;;;;;4.20;3.45;;;34.20;58.50;;;;;;5112545;28;20466;-71
2021/06/17 12:34:39;;;;;;;3.08;2.70;;;34.10;58.90;;;;;;5091824;28;20023;-73
2021/06/17 12:37:06;;;;;;;6.97;3.22;;;34.20;59.10;;;;;;5091368;28;20468;-70
2021/06/17 12:39:32;;;;;;;6.68;3.25;;;34.20;59.10;;;;;;5072273;28;20465;-69
2021/06/17 12:41:58;;;;;;;6.82;3.50;;;34.20;58.40;;;;;;5073799;28;20028;-69
2021/06/17 12:44:27;;;;;;;6.25;3.53;;;34.30;58.20;;;;;;5073458;28;20032;-69
2021/06/17 12:46:58;;;;;;;5.70;3.63;;;34.40;57.80;;;;;;5107506;28;20127;-70
2021/06/17 12:52:01;;;;;;;6.88;3.10;;;34.40;57.50;;;;;;5091904;28;20028;-70
2021/06/17 12:52:12;;;;;;;6.13;3.25;;;34.50;57.70;;;;;;5092302;28;20032;-69
2021/06/17 12:54:48;;;;;;;7.00;3.60;;;34.40;57.20;;;;;;5089334;28;20111;-70
2021/06/17 12:57:20;;;;;;;7.32;3.50;;;34.50;57.10;;;;;;5091823;28;20095;-71
2021/06/17 12:59:47;;;;;;;12.88;3.35;;;34.60;57.80;;;;;;5091157;28;20046;-71
2021/06/17 13:02:37;;;;;;;4.35;2.50;;;34.40;56.80;;;;;;5107744;28;20031;-70